createdAt,value
2018-12-23T00:00:11.063Z,4.03
2018-12-23T00:02:41.715Z,4.07
2018-12-23T00:05:15.372Z,3.83
2018-12-23T00:07:46.178Z,4.10
2018-12-23T00:10:17.151Z,4.00
2018-12-23T00:12:48.035Z,4.10
2018-12-23T00:15:25.334Z,3.87
2018-12-23T00:17:56.304Z,3.70
2018-12-23T00:20:26.914Z,3.70
2018-12-23T00:22:57.794Z,3.73
2018-12-23T00:25:28.655Z,3.80
2018-12-23T00:27:59.195Z,4.00
2018-12-23T00:30:30.004Z,3.60
2018-12-23T00:33:00.785Z,3.67
2018-12-23T00:35:31.481Z,3.67
2018-12-23T00:38:02.305Z,3.97
2018-12-23T00:40:33.193Z,4.13
2018-12-23T00:43:03.956Z,3.80
2018-12-23T00:45:34.821Z,3.83
2018-12-23T00:48:05.588Z,4.23
2018-12-23T00:50:39.079Z,3.80
2018-12-23T00:53:09.922Z,3.70
2018-12-23T00:55:43.435Z,4.03
2018-12-23T00:58:14.402Z,3.83
2018-12-23T01:00:45.478Z,3.53
2018-12-23T01:03:19.928Z,3.60
2018-12-23T01:05:51.196Z,3.43
2018-12-23T01:08:22.079Z,3.70
2018-12-23T01:10:55.675Z,3.50
2018-12-23T01:13:27.087Z,3.90
2018-12-23T01:15:57.718Z,3.93
2018-12-23T01:18:29.412Z,3.50
2018-12-23T01:21:00.183Z,3.60
2018-12-23T01:23:31.507Z,3.80
2018-12-23T01:26:05.147Z,3.67
2018-12-23T01:28:36.007Z,3.70
2018-12-23T01:31:06.845Z,4.03
2018-12-23T01:33:37.694Z,3.73
2018-12-23T01:36:13.727Z,3.43
2018-12-23T01:38:47.864Z,3.80
2018-12-23T01:41:19.031Z,3.67
2018-12-23T01:43:49.940Z,3.83
2018-12-23T01:46:23.532Z,3.67
2018-12-23T01:48:54.387Z,3.93
2018-12-23T01:51:28.058Z,3.75
2018-12-23T01:54:01.851Z,3.87
2018-12-23T01:56:32.761Z,3.90
2018-12-23T01:59:06.472Z,3.70
2018-12-23T02:01:37.446Z,3.50
2018-12-23T02:04:08.236Z,3.60
2018-12-23T02:06:39.265Z,3.50
2018-12-23T02:09:10.059Z,3.87
2018-12-23T02:11:40.927Z,4.00
2018-12-23T02:14:14.452Z,4.60
2018-12-23T02:16:45.256Z,4.33
2018-12-23T02:19:18.827Z,4.40
2018-12-23T02:21:52.346Z,4.10
2018-12-23T02:24:26.464Z,3.97
2018-12-23T02:26:59.881Z,4.27
2018-12-23T02:32:28.403Z,4.10
2018-12-23T02:35:02.878Z,4.60
2018-12-23T02:37:36.875Z,3.80
2018-12-23T02:40:07.880Z,3.50
2018-12-23T02:42:38.685Z,3.40
2018-12-23T02:45:09.616Z,4.13
2018-12-23T02:47:40.231Z,4.17
2018-12-23T02:50:13.855Z,3.67
2018-12-23T02:52:44.996Z,4.10
2018-12-23T02:55:18.355Z,4.10
2018-12-23T02:58:06.024Z,4.07
2018-12-23T03:00:40.608Z,3.77
2018-12-23T03:03:11.487Z,3.47
2018-12-23T03:05:42.217Z,3.70
2018-12-23T03:08:13.017Z,4.23
2018-12-23T03:10:46.517Z,4.23
2018-12-23T03:13:20.402Z,4.27
2018-12-23T03:15:51.303Z,3.70
2018-12-23T03:18:22.049Z,4.40
2018-12-23T03:20:52.583Z,4.77
2018-12-23T03:23:23.463Z,3.80
2018-12-23T03:25:56.943Z,4.03
2018-12-23T03:28:30.633Z,4.30
2018-12-23T03:31:04.667Z,4.40
2018-12-23T03:33:35.763Z,3.70
2018-12-23T03:36:14.750Z,3.80
2018-12-23T03:38:42.225Z,5.40
2018-12-23T03:41:16.137Z,4.10
2018-12-23T03:44:04.788Z,4.47
2018-12-23T03:46:38.664Z,4.67
2018-12-23T03:49:12.440Z,3.73
2018-12-23T03:51:46.192Z,4.00
2018-12-23T03:54:17.574Z,4.20
2018-12-23T03:56:51.162Z,3.90
2018-12-23T03:59:25.098Z,4.20
2018-12-23T04:01:56.098Z,4.13
2018-12-23T04:04:29.638Z,3.53
2018-12-23T04:07:00.926Z,4.60
2018-12-23T04:09:31.501Z,3.87
2018-12-23T04:12:04.942Z,4.97
2018-12-23T04:14:35.915Z,4.00
2018-12-23T04:17:09.378Z,3.50
2018-12-23T04:19:43.170Z,4.17
2018-12-23T04:22:14.356Z,4.30
2018-12-23T04:24:48.115Z,4.40
2018-12-23T04:27:19.295Z,4.33
2018-12-23T04:29:55.123Z,4.20
2018-12-23T04:32:25.906Z,3.93
2018-12-23T04:34:56.697Z,3.80
2018-12-23T04:37:30.271Z,4.37
2018-12-23T04:40:04.302Z,3.90
2018-12-23T04:42:35.170Z,4.33
2018-12-23T04:45:05.941Z,5.20
2018-12-23T04:47:39.571Z,4.23
2018-12-23T04:50:10.244Z,4.90
2018-12-23T04:52:41.100Z,4.40
2018-12-23T04:55:14.864Z,4.57
2018-12-23T04:57:48.371Z,4.20
2018-12-23T05:00:19.273Z,4.67
2018-12-23T05:02:49.924Z,4.20
2018-12-23T05:05:23.373Z,5.00
2018-12-23T05:07:54.352Z,4.13
2018-12-23T05:10:27.779Z,4.03
2018-12-23T05:13:01.605Z,4.73
2018-12-23T05:15:32.652Z,5.30
2018-12-23T05:18:03.315Z,4.70
2018-12-23T05:20:34.168Z,4.20
2018-12-23T05:23:07.653Z,4.77
2018-12-23T05:25:41.323Z,4.60
2018-12-23T05:28:14.726Z,3.60
2018-12-23T05:30:45.510Z,3.33
2018-12-23T05:33:19.131Z,4.37
2018-12-23T05:35:52.717Z,3.57
2018-12-23T05:38:26.340Z,5.00
2018-12-23T05:40:57.224Z,4.07
2018-12-23T05:43:28.002Z,4.03
2018-12-23T05:46:01.382Z,3.10
2018-12-23T05:48:35.272Z,3.93
2018-12-23T05:51:06.372Z,4.53
2018-12-23T05:53:37.067Z,4.40
2018-12-23T05:56:10.496Z,4.60
2018-12-23T05:58:44.197Z,4.50
2018-12-23T06:01:17.755Z,4.43
2018-12-23T06:03:48.505Z,4.73
2018-12-23T06:06:21.940Z,4.83
2018-12-23T06:08:54.571Z,4.63
2018-12-23T06:11:25.459Z,4.80
2018-12-23T06:13:56.161Z,5.13
2018-12-23T06:16:26.976Z,4.60
2018-12-23T06:19:00.596Z,5.80
2018-12-23T06:21:34.386Z,5.00
2018-12-23T06:24:07.932Z,4.83
2018-12-23T06:26:41.693Z,4.60
2018-12-23T06:29:12.764Z,5.23
2018-12-23T06:31:43.750Z,4.87
2018-12-23T06:34:17.203Z,4.80
2018-12-23T06:36:50.949Z,4.60
2018-12-23T06:39:24.471Z,4.60
2018-12-23T06:41:55.452Z,4.93
2018-12-23T06:44:35.439Z,4.60
2018-12-23T06:50:01.556Z,5.23
2018-12-23T06:55:32.429Z,4.90
2018-12-23T06:58:06.023Z,5.70
2018-12-23T07:00:39.553Z,5.90
2018-12-23T07:03:13.263Z,5.57
2018-12-23T07:05:53.726Z,5.60
2018-12-23T07:08:31.507Z,4.93
2018-12-23T07:11:11.940Z,5.57
2018-12-23T07:13:45.659Z,4.97
2018-12-23T07:16:21.208Z,4.50
2018-12-23T07:18:48.723Z,6.47
2018-12-23T07:21:16.269Z,6.07
2018-12-23T07:23:50.518Z,5.37
2018-12-23T07:26:18.059Z,4.23
2018-12-23T07:28:51.012Z,6.37
2018-12-23T07:31:18.575Z,5.80
2018-12-23T07:33:48.363Z,9.77
2018-12-23T07:36:20.740Z,18.40
2018-12-23T07:38:48.274Z,11.67
2018-12-23T07:41:19.327Z,9.37
2018-12-23T07:43:46.873Z,8.97
2018-12-23T07:46:14.476Z,16.57
2018-12-23T07:48:47.822Z,15.43
2018-12-23T07:51:34.615Z,22.17
2018-12-23T07:54:08.766Z,9.13
2018-12-23T07:56:39.661Z,6.40
2018-12-23T07:59:10.414Z,8.50
2018-12-23T08:01:43.980Z,8.87
2018-12-23T08:04:15.063Z,9.77
2018-12-23T08:06:48.419Z,7.87
2018-12-23T08:09:19.303Z,6.33
2018-12-23T08:11:52.927Z,6.07
2018-12-23T08:14:24.178Z,7.17
2018-12-23T08:16:57.616Z,6.97
2018-12-23T08:19:28.576Z,7.50
2018-12-23T08:21:59.210Z,8.40
2018-12-23T08:24:33.221Z,6.97
2018-12-23T08:27:06.513Z,7.10
2018-12-23T08:29:40.073Z,9.73
2018-12-23T08:32:11.030Z,7.10
2018-12-23T08:34:42.205Z,6.07
2018-12-23T08:37:16.364Z,8.77
2018-12-23T08:39:50.239Z,7.60
2018-12-23T08:42:24.109Z,9.30
2018-12-23T08:44:56.079Z,7.50
2018-12-23T08:47:27.107Z,10.43
2018-12-23T08:50:01.533Z,10.50
2018-12-23T08:52:32.541Z,6.67
2018-12-23T08:55:06.042Z,5.97
2018-12-23T08:57:39.785Z,6.57
2018-12-23T09:00:10.893Z,7.33
2018-12-23T09:02:44.475Z,5.13
2018-12-23T09:05:18.169Z,4.57
2018-12-23T09:07:52.976Z,4.43
2018-12-23T09:10:22.226Z,5.23
2018-12-23T09:12:52.920Z,4.60
2018-12-23T09:15:28.450Z,5.57
2018-12-23T09:17:59.658Z,5.60
2018-12-23T09:20:30.609Z,5.43
2018-12-23T09:23:04.209Z,4.33
2018-12-23T09:25:35.196Z,4.77
2018-12-23T09:28:08.990Z,5.07
2018-12-23T09:30:39.851Z,5.07
2018-12-23T09:33:10.656Z,4.97
2018-12-23T09:35:41.440Z,5.13
2018-12-23T09:43:12.347Z,7.20
2018-12-23T09:48:15.596Z,10.07
2018-12-23T09:50:49.210Z,5.17
2018-12-23T09:53:20.296Z,5.83
2018-12-23T09:55:50.921Z,5.70
2018-12-23T09:58:24.464Z,5.00
2018-12-23T10:00:55.460Z,7.77
2018-12-23T10:03:26.026Z,5.20
2018-12-23T10:05:59.663Z,4.80
2018-12-23T10:08:28.613Z,4.77
2018-12-23T10:10:57.348Z,5.50
2018-12-23T10:16:21.816Z,6.03
2018-12-23T10:18:49.356Z,5.37
2018-12-23T10:21:20.320Z,6.10
2018-12-23T10:23:51.164Z,5.10
2018-12-23T10:26:24.500Z,4.87
2018-12-23T10:28:57.972Z,5.03
2018-12-23T10:31:31.673Z,5.13
2018-12-23T10:34:05.453Z,4.90
2018-12-23T10:36:36.244Z,32.20
2018-12-23T10:39:06.872Z,13.97
2018-12-23T10:41:40.184Z,7.60
2018-12-23T10:44:10.979Z,8.07
2018-12-23T10:46:44.431Z,6.20
2018-12-23T10:49:18.004Z,6.63
2018-12-23T10:51:51.584Z,6.40
2018-12-23T10:54:25.254Z,6.40
2018-12-23T10:56:56.180Z,6.33
2018-12-23T10:59:31.667Z,7.63
2018-12-23T11:02:13.468Z,6.23
2018-12-23T11:04:38.099Z,5.57
2018-12-23T11:07:08.826Z,6.27
2018-12-23T11:09:39.589Z,6.37
2018-12-23T11:12:10.400Z,8.37
2018-12-23T11:14:41.135Z,10.07
2018-12-23T11:17:11.831Z,7.03
2018-12-23T11:19:46.081Z,7.30
2018-12-23T11:22:17.270Z,6.73
2018-12-23T11:24:52.052Z,6.80
2018-12-23T11:27:26.932Z,7.33
2018-12-23T11:30:03.103Z,8.10
2018-12-23T11:32:38.421Z,7.57
2018-12-23T11:35:11.961Z,5.90
2018-12-23T11:37:45.416Z,7.47
2018-12-23T11:40:19.073Z,5.57
2018-12-23T11:42:58.725Z,6.47
2018-12-23T11:45:29.617Z,5.50
2018-12-23T11:48:03.211Z,5.27
2018-12-23T11:50:36.907Z,10.40
2018-12-23T11:53:07.818Z,9.97
2018-12-23T11:55:41.415Z,10.20
2018-12-23T11:58:12.140Z,8.63
2018-12-23T12:00:45.611Z,11.27
2018-12-23T12:03:19.273Z,10.40
2018-12-23T12:05:53.234Z,15.10
2018-12-23T12:08:24.750Z,9.77
2018-12-23T12:10:55.432Z,8.87
2018-12-23T12:13:28.907Z,6.43
2018-12-23T12:16:02.569Z,8.73
2018-12-23T12:18:33.537Z,8.57
2018-12-23T12:21:04.283Z,9.13
2018-12-23T12:23:35.717Z,6.77
2018-12-23T12:26:06.490Z,12.17
2018-12-23T12:28:37.283Z,13.27
2018-12-23T12:31:08.094Z,8.70
2018-12-23T12:33:41.514Z,11.37
2018-12-23T12:36:09.039Z,8.83
2018-12-23T12:38:36.606Z,5.50
2018-12-23T12:41:04.145Z,7.63
2018-12-23T12:43:31.681Z,7.53
2018-12-23T12:46:00.667Z,6.00
2018-12-23T12:48:28.481Z,8.57
2018-12-23T12:51:11.135Z,8.30
2018-12-23T12:53:47.013Z,7.23
2018-12-23T12:56:14.537Z,10.83
2018-12-23T12:58:42.107Z,8.17
2018-12-23T13:01:12.752Z,8.43
2018-12-23T13:03:46.081Z,6.73
2018-12-23T13:06:13.624Z,7.63
2018-12-23T13:08:41.162Z,8.23
2018-12-23T13:11:08.675Z,9.00
2018-12-23T13:13:36.219Z,7.60
2018-12-23T13:16:03.747Z,7.30
2018-12-23T13:18:31.282Z,7.37
2018-12-23T13:20:58.814Z,6.43
2018-12-23T13:23:26.360Z,6.73
2018-12-23T13:25:53.869Z,7.50
2018-12-23T13:28:21.371Z,6.90
2018-12-23T13:30:48.896Z,6.20
2018-12-23T13:33:16.398Z,5.50
2018-12-23T13:35:43.936Z,6.30
2018-12-23T13:38:11.486Z,6.10
2018-12-23T13:40:54.366Z,8.03
2018-12-23T13:47:08.796Z,11.43
2018-12-23T13:50:14.176Z,9.20
2018-12-23T13:52:45.920Z,11.57
2018-12-23T13:55:32.480Z,23.47
2018-12-23T13:58:19.033Z,11.40
2018-12-23T14:00:53.557Z,18.93
2018-12-23T14:03:41.888Z,9.80
2018-12-23T14:06:28.856Z,23.03
2018-12-23T14:09:17.125Z,12.53
2018-12-23T14:11:57.805Z,7.10
2018-12-23T14:14:26.296Z,6.90
2018-12-23T14:16:54.822Z,7.97
2018-12-23T14:19:23.370Z,6.77
2018-12-23T14:21:51.790Z,7.30
2018-12-23T14:24:20.260Z,7.10
2018-12-23T14:26:48.801Z,7.13
2018-12-23T14:29:17.271Z,7.50
2018-12-23T14:31:45.784Z,9.77
2018-12-23T14:34:14.253Z,12.73
2018-12-23T14:36:42.777Z,7.53
2018-12-23T14:39:11.324Z,9.00
2018-12-23T14:41:39.828Z,7.93
2018-12-23T14:44:08.316Z,8.47
2018-12-23T14:46:36.826Z,8.00
2018-12-23T14:49:05.331Z,8.50
2018-12-23T14:51:33.807Z,7.70
2018-12-23T14:54:02.301Z,8.00
2018-12-23T14:56:30.795Z,7.23
2018-12-23T14:58:59.281Z,9.90
2018-12-23T15:01:27.812Z,9.73
2018-12-23T15:03:56.276Z,8.17
2018-12-23T15:06:24.793Z,10.07
2018-12-23T15:08:53.272Z,10.00
2018-12-23T15:11:21.773Z,9.53
2018-12-23T15:13:50.257Z,10.67
2018-12-23T15:16:18.833Z,11.17
2018-12-23T15:18:47.308Z,9.90
2018-12-23T15:21:15.839Z,9.00
2018-12-23T15:23:44.368Z,8.50
2018-12-23T15:26:12.888Z,8.20
2018-12-23T15:28:41.370Z,8.50
2018-12-23T15:31:09.995Z,9.60
2018-12-23T15:33:38.457Z,7.60
2018-12-23T15:36:06.978Z,9.50
2018-12-23T15:38:35.479Z,11.93
2018-12-23T15:41:03.891Z,11.00
2018-12-23T15:43:32.464Z,8.27
2018-12-23T15:46:00.976Z,7.40
2018-12-23T15:48:29.501Z,8.03
2018-12-23T15:50:57.981Z,8.10
2018-12-23T15:53:26.575Z,5.63
2018-12-23T15:55:55.056Z,9.53
2018-12-23T15:58:23.566Z,6.60
2018-12-23T16:00:52.047Z,6.97
2018-12-23T16:03:20.640Z,5.67
2018-12-23T16:05:49.142Z,5.43
2018-12-23T16:08:17.713Z,7.23
2018-12-23T16:10:46.254Z,6.00
2018-12-23T16:13:14.896Z,6.00
2018-12-23T16:15:43.423Z,6.40
2018-12-23T16:18:11.933Z,6.37
2018-12-23T16:20:40.392Z,6.97
2018-12-23T16:23:08.915Z,6.37
2018-12-23T16:25:37.405Z,10.30
2018-12-23T16:28:07.627Z,7.47
2018-12-23T16:30:36.027Z,8.23
2018-12-23T16:33:04.551Z,6.13
2018-12-23T16:35:33.061Z,6.40
2018-12-23T16:38:01.578Z,6.73
2018-12-23T16:40:30.091Z,7.73
2018-12-23T16:42:58.731Z,9.23
2018-12-23T16:45:27.431Z,8.43
2018-12-23T16:47:55.925Z,8.57
2018-12-23T16:50:24.453Z,6.50
2018-12-23T16:52:54.701Z,6.33
2018-12-23T16:55:23.153Z,7.30
2018-12-23T16:57:51.656Z,10.47
2018-12-23T17:00:20.131Z,9.70
2018-12-23T17:02:48.661Z,9.50
2018-12-23T17:05:17.160Z,10.67
2018-12-23T17:07:45.673Z,11.37
2018-12-23T17:10:14.186Z,9.90
2018-12-23T17:12:42.655Z,9.73
2018-12-23T17:15:11.156Z,13.10
2018-12-23T17:17:39.638Z,6.97
2018-12-23T17:20:10.183Z,6.90
2018-12-23T17:22:38.676Z,4.90
2018-12-23T17:25:07.184Z,8.00
2018-12-23T17:27:35.729Z,7.57
2018-12-23T17:30:07.893Z,9.13
2018-12-23T17:32:36.351Z,9.03
2018-12-23T17:35:05.035Z,8.80
2018-12-23T17:37:33.488Z,7.30
2018-12-23T17:40:02.057Z,9.50
2018-12-23T17:42:30.531Z,9.43
2018-12-23T17:44:59.043Z,11.47
2018-12-23T17:47:27.620Z,9.37
2018-12-23T17:49:56.127Z,10.67
2018-12-23T17:52:24.717Z,10.40
2018-12-23T17:54:53.224Z,9.50
2018-12-23T17:57:21.699Z,10.27
2018-12-23T17:59:50.222Z,9.60
2018-12-23T18:02:18.702Z,9.63
2018-12-23T18:04:47.212Z,9.77
2018-12-23T18:07:15.751Z,9.03
2018-12-23T18:09:44.216Z,11.00
2018-12-23T18:12:12.682Z,11.57
2018-12-23T18:14:41.276Z,16.20
2018-12-23T18:17:09.784Z,11.33
2018-12-23T18:19:38.284Z,10.67
2018-12-23T18:22:06.784Z,12.37
2018-12-23T18:24:35.308Z,9.73
2018-12-23T18:27:03.800Z,10.67
2018-12-23T18:29:32.331Z,10.80
2018-12-23T18:32:00.885Z,11.20
2018-12-23T18:34:29.366Z,16.77
2018-12-23T18:36:57.916Z,15.00
2018-12-23T18:39:26.403Z,13.93
2018-12-23T18:41:54.938Z,13.67
2018-12-23T18:44:23.397Z,11.23
2018-12-23T18:46:51.989Z,13.80
2018-12-23T18:49:20.495Z,13.13
2018-12-23T18:51:49.006Z,12.20
2018-12-23T18:54:17.491Z,12.80
2018-12-23T18:56:46.009Z,12.30
2018-12-23T18:59:14.638Z,11.30
2018-12-23T19:01:43.474Z,13.00
2018-12-23T19:04:12.317Z,15.80
2018-12-23T19:06:40.846Z,14.83
2018-12-23T19:09:10.099Z,15.30
2018-12-23T19:11:44.968Z,15.83
2018-12-23T19:14:50.135Z,16.90
2018-12-23T19:17:24.914Z,15.13
2018-12-23T19:20:02.234Z,13.80
2018-12-23T19:23:04.327Z,18.50
2018-12-23T19:26:04.489Z,17.10
2018-12-23T19:28:41.475Z,16.23
2018-12-23T19:31:31.596Z,17.30
2018-12-23T19:34:12.164Z,16.03
2018-12-23T19:37:13.677Z,12.70
2018-12-23T19:39:57.220Z,13.60
2018-12-23T19:42:48.369Z,10.63
2018-12-23T19:45:35.378Z,9.03
2018-12-23T19:48:18.078Z,9.83
2018-12-23T19:51:01.697Z,10.50
2018-12-23T19:53:42.545Z,9.73
2018-12-23T19:56:20.372Z,9.87
2018-12-23T19:59:03.731Z,11.83
2018-12-23T20:01:56.550Z,19.10
2018-12-23T20:04:43.330Z,10.73
2018-12-23T20:07:21.017Z,10.77
2018-12-23T20:09:55.722Z,11.20
2018-12-23T20:12:45.575Z,10.43
2018-12-23T20:15:28.939Z,11.30
2018-12-23T20:18:35.141Z,12.70
2018-12-23T20:21:15.673Z,10.87
2018-12-23T20:24:05.886Z,11.70
2018-12-23T20:27:09.584Z,12.63
2018-12-23T20:30:02.079Z,15.57
2018-12-23T20:32:42.595Z,15.70
2018-12-23T20:35:14.355Z,13.13
2018-12-23T20:38:18.233Z,13.37
2018-12-23T20:41:07.554Z,13.70
2018-12-23T20:43:35.252Z,10.47
2018-12-23T20:46:34.377Z,10.37
2018-12-23T20:49:24.448Z,9.07
2018-12-23T20:52:20.372Z,9.20
2018-12-23T20:55:25.659Z,10.27
2018-12-23T20:58:02.931Z,11.03
2018-12-23T21:00:59.280Z,6.63
2018-12-23T21:04:01.097Z,9.17
2018-12-23T21:07:08.805Z,9.30
2018-12-23T21:09:59.601Z,11.87
2018-12-23T21:12:55.155Z,10.37
2018-12-23T21:15:26.938Z,7.77
2018-12-23T21:18:10.293Z,13.13
2018-12-23T21:21:07.871Z,7.50
2018-12-23T21:23:57.560Z,5.97
2018-12-23T21:26:44.226Z,6.57
2018-12-23T21:29:31.347Z,7.47
2018-12-23T21:32:15.493Z,5.27
2018-12-23T21:34:59.044Z,7.33
2018-12-23T21:37:30.795Z,4.20
2018-12-23T21:40:08.221Z,5.63
2018-12-23T21:43:13.252Z,5.90
2018-12-23T21:45:53.761Z,5.03
2018-12-23T21:48:28.324Z,7.03
2018-12-23T21:51:19.582Z,6.07
2018-12-23T21:54:03.776Z,7.77
2018-12-23T21:56:59.935Z,5.10
2018-12-23T21:59:34.456Z,5.60
2018-12-23T22:02:27.356Z,4.50
2018-12-23T22:05:15.624Z,5.20
2018-12-23T22:07:59.060Z,4.60
2018-12-23T22:10:48.942Z,5.07
2018-12-23T22:13:26.438Z,5.77
2018-12-23T22:15:55.060Z,5.23
2018-12-23T22:18:23.535Z,4.60
2018-12-23T22:20:52.051Z,4.67
2018-12-23T22:23:20.527Z,3.93
2018-12-23T22:25:49.173Z,4.33
2018-12-23T22:28:17.680Z,4.40
2018-12-23T22:30:46.169Z,4.37
2018-12-23T22:33:14.657Z,3.80
2018-12-23T22:35:43.224Z,4.07
2018-12-23T22:38:11.666Z,4.13
2018-12-23T22:40:40.418Z,4.63
2018-12-23T22:43:08.939Z,4.10
2018-12-23T22:45:37.407Z,5.10
2018-12-23T22:48:05.945Z,4.77
2018-12-23T22:50:34.415Z,4.50
2018-12-23T22:53:03.049Z,3.90
2018-12-23T22:55:31.531Z,4.30
2018-12-23T22:58:00.049Z,4.90
2018-12-23T23:00:30.196Z,4.13
2018-12-23T23:02:58.721Z,4.57
2018-12-23T23:05:27.200Z,4.30
2018-12-23T23:07:55.734Z,3.77
2018-12-23T23:10:24.342Z,4.77
2018-12-23T23:12:52.853Z,4.47
2018-12-23T23:15:21.344Z,4.77
2018-12-23T23:17:49.856Z,4.80
2018-12-23T23:20:18.338Z,5.13
2018-12-23T23:22:46.854Z,4.93
2018-12-23T23:25:15.369Z,4.27
2018-12-23T23:27:43.872Z,4.80
2018-12-23T23:30:12.371Z,3.63
2018-12-23T23:32:40.884Z,4.70
2018-12-23T23:35:09.376Z,4.30
2018-12-23T23:37:37.872Z,4.37
2018-12-23T23:40:06.361Z,3.67
2018-12-23T23:42:34.872Z,4.27
2018-12-23T23:45:03.347Z,3.60
2018-12-23T23:47:31.845Z,3.60
2018-12-23T23:50:00.336Z,4.07
2018-12-23T23:52:28.987Z,4.10
2018-12-23T23:54:57.484Z,4.00
2018-12-23T23:57:25.963Z,4.10
2018-12-23T23:59:54.477Z,4.00
